createdAt,value
2023-03-19T00:01:07.183Z,2.03
2023-03-19T00:03:39.805Z,2.10
2023-03-19T00:06:09.656Z,1.80
2023-03-19T00:08:42.963Z,2.03
2023-03-19T00:11:12.833Z,2.07
2023-03-19T00:13:41.074Z,2.00
2023-03-19T00:16:09.336Z,2.47
2023-03-19T00:18:37.134Z,2.47
2023-03-19T00:21:06.231Z,2.10
2023-03-19T00:23:36.864Z,2.60
2023-03-19T00:26:08.323Z,2.50
2023-03-19T00:28:37.349Z,1.97
2023-03-19T00:31:10.018Z,1.97
2023-03-19T00:33:38.879Z,2.23
2023-03-19T00:36:07.175Z,2.23
2023-03-19T00:38:36.727Z,2.30
2023-03-19T00:41:05.969Z,2.37
2023-03-19T00:43:34.283Z,2.27
2023-03-19T00:46:01.903Z,2.40
2023-03-19T00:48:36.177Z,2.40
2023-03-19T00:51:07.514Z,2.90
2023-03-19T00:53:41.038Z,2.70
2023-03-19T00:56:13.723Z,2.30
2023-03-19T00:58:43.022Z,2.40
2023-03-19T01:01:16.345Z,2.53
2023-03-19T01:03:46.056Z,2.40
2023-03-19T01:06:14.413Z,1.90
2023-03-19T01:08:45.821Z,2.00
2023-03-19T01:11:15.679Z,2.10
2023-03-19T01:13:43.122Z,2.27
2023-03-19T01:16:10.759Z,2.10
2023-03-19T01:18:39.160Z,1.83
2023-03-19T01:21:08.283Z,1.83
2023-03-19T01:23:35.517Z,2.10
2023-03-19T01:26:03.272Z,2.07
2023-03-19T01:28:30.466Z,1.97
2023-03-19T01:31:07.766Z,1.83
2023-03-19T01:33:35.067Z,2.03
2023-03-19T01:36:05.765Z,2.07
2023-03-19T01:38:33.084Z,2.07
2023-03-19T01:41:02.503Z,1.93
2023-03-19T01:43:31.747Z,1.80
2023-03-19T01:46:28.798Z,2.13
2023-03-19T01:49:00.165Z,1.93
2023-03-19T01:51:32.221Z,2.30
2023-03-19T01:54:05.032Z,2.30
2023-03-19T01:56:35.100Z,2.00
2023-03-19T01:59:11.572Z,2.90
2023-03-19T02:01:54.205Z,2.30
2023-03-19T02:04:24.069Z,2.73
2023-03-19T02:06:51.414Z,2.83
2023-03-19T02:09:19.519Z,3.30
2023-03-19T02:11:48.643Z,3.43
2023-03-19T02:14:16.378Z,3.13
2023-03-19T02:16:43.384Z,3.10
2023-03-19T02:19:27.747Z,2.67
2023-03-19T02:21:56.526Z,2.97
2023-03-19T02:24:37.958Z,3.10
2023-03-19T02:27:09.322Z,3.10
2023-03-19T02:29:38.447Z,3.27
2023-03-19T02:32:05.761Z,3.50
2023-03-19T02:34:41.752Z,3.30
2023-03-19T02:37:27.804Z,3.27
2023-03-19T02:40:00.520Z,3.17
2023-03-19T02:42:30.270Z,3.50
2023-03-19T02:45:01.394Z,3.53
2023-03-19T02:47:29.485Z,3.50
2023-03-19T02:49:57.015Z,3.30
2023-03-19T02:52:24.428Z,3.40
2023-03-19T02:54:51.476Z,3.63
2023-03-19T02:57:18.772Z,3.50
2023-03-19T02:59:52.869Z,3.93
2023-03-19T03:02:20.945Z,3.67
2023-03-19T03:04:51.245Z,3.53
2023-03-19T03:07:18.244Z,3.70
2023-03-19T03:09:48.544Z,3.53
2023-03-19T03:12:15.766Z,3.80
2023-03-19T03:14:44.045Z,3.97
2023-03-19T03:17:13.601Z,4.40
2023-03-19T03:19:40.775Z,4.43
2023-03-19T03:22:08.169Z,3.83
2023-03-19T03:24:35.603Z,4.13
2023-03-19T03:27:03.670Z,4.10
2023-03-19T03:29:32.782Z,4.17
2023-03-19T03:31:59.848Z,4.40
2023-03-19T03:34:32.884Z,3.90
2023-03-19T03:36:59.856Z,4.23
2023-03-19T03:39:28.206Z,3.47
2023-03-19T03:41:56.085Z,3.70
2023-03-19T03:44:23.211Z,4.00
2023-03-19T03:46:52.098Z,3.70
2023-03-19T03:49:21.222Z,3.63
2023-03-19T03:51:48.597Z,4.00
2023-03-19T03:54:16.655Z,3.87
2023-03-19T03:56:44.814Z,3.90
2023-03-19T03:59:12.967Z,4.17
2023-03-19T04:01:39.918Z,4.30
2023-03-19T04:04:06.863Z,4.13
2023-03-19T04:06:35.178Z,4.30
2023-03-19T04:09:08.123Z,4.70
2023-03-19T04:11:37.246Z,4.80
2023-03-19T04:14:04.591Z,4.70
2023-03-19T04:16:31.911Z,4.63
2023-03-19T04:18:59.013Z,4.70
2023-03-19T04:21:28.271Z,4.53
2023-03-19T04:23:55.327Z,4.80
2023-03-19T04:26:22.497Z,5.40
2023-03-19T04:28:49.627Z,5.20
2023-03-19T04:31:17.654Z,5.03
2023-03-19T04:33:44.660Z,6.17
2023-03-19T04:36:12.705Z,5.83
2023-03-19T04:38:39.758Z,6.10
2023-03-19T04:41:09.923Z,6.27
2023-03-19T04:43:37.264Z,6.07
2023-03-19T04:46:07.097Z,6.37
2023-03-19T04:48:36.234Z,6.87
2023-03-19T04:51:04.462Z,6.53
2023-03-19T04:53:33.238Z,6.97
2023-03-19T04:56:01.681Z,7.40
2023-03-19T04:58:31.314Z,7.50
2023-03-19T05:00:58.232Z,7.07
2023-03-19T05:03:27.714Z,7.77
2023-03-19T05:05:57.137Z,7.40
2023-03-19T05:08:24.120Z,7.70
2023-03-19T05:10:51.172Z,7.67
2023-03-19T05:13:20.986Z,8.60
2023-03-19T05:15:54.383Z,7.73
2023-03-19T05:18:24.063Z,7.57
2023-03-19T05:20:53.451Z,8.47
2023-03-19T05:23:20.628Z,8.10
2023-03-19T05:25:53.462Z,10.23
2023-03-19T05:28:20.265Z,10.43
2023-03-19T05:30:47.496Z,11.20
2023-03-19T05:33:15.714Z,13.10
2023-03-19T05:35:42.599Z,12.83
2023-03-19T05:38:11.991Z,13.63
2023-03-19T05:40:42.168Z,14.33
2023-03-19T05:43:10.892Z,14.57
2023-03-19T05:45:40.283Z,14.83
2023-03-19T05:48:07.329Z,15.33
2023-03-19T05:50:36.219Z,16.30
2023-03-19T05:53:04.263Z,16.20
2023-03-19T05:55:32.291Z,16.43
2023-03-19T05:58:00.348Z,16.50
2023-03-19T06:00:27.889Z,17.77
2023-03-19T06:02:58.305Z,16.67
2023-03-19T06:05:25.558Z,16.90
2023-03-19T06:07:52.576Z,17.77
2023-03-19T06:10:20.926Z,16.27
2023-03-19T06:12:51.633Z,16.87
2023-03-19T06:15:26.413Z,17.17
2023-03-19T06:17:53.512Z,15.83
2023-03-19T06:20:25.276Z,16.23
2023-03-19T06:22:54.500Z,17.80
2023-03-19T06:25:26.118Z,19.27
2023-03-19T06:27:53.324Z,21.20
2023-03-19T06:30:20.439Z,20.37
2023-03-19T06:32:48.590Z,19.60
2023-03-19T06:35:15.655Z,19.33
2023-03-19T06:37:43.165Z,20.07
2023-03-19T06:40:12.536Z,19.60
2023-03-19T06:43:02.337Z,20.40
2023-03-19T06:45:30.915Z,19.07
2023-03-19T06:47:59.640Z,19.90
2023-03-19T06:50:29.050Z,18.57
2023-03-19T06:52:59.714Z,17.93
2023-03-19T06:55:32.388Z,17.80
2023-03-19T06:57:59.706Z,18.03
2023-03-19T07:00:26.980Z,18.50
2023-03-19T07:02:57.691Z,17.60
2023-03-19T07:05:28.545Z,19.47
2023-03-19T07:08:11.981Z,18.00
2023-03-19T07:10:42.016Z,18.23
2023-03-19T07:13:11.426Z,18.37
2023-03-19T07:15:40.871Z,19.07
2023-03-19T07:18:11.871Z,20.00
2023-03-19T07:20:46.619Z,18.73
2023-03-19T07:23:35.564Z,17.53
2023-03-19T07:26:04.145Z,17.43
2023-03-19T07:28:33.465Z,16.57
2023-03-19T07:31:09.249Z,17.37
2023-03-19T07:33:37.108Z,17.77
2023-03-19T07:36:19.331Z,17.47
2023-03-19T07:39:05.130Z,18.30
2023-03-19T07:44:30.637Z,18.77
2023-03-19T07:47:18.999Z,18.73
2023-03-19T07:49:55.688Z,19.67
2023-03-19T07:52:31.620Z,21.03
2023-03-19T07:55:15.392Z,21.33
2023-03-19T07:57:58.820Z,21.83
2023-03-19T08:00:29.261Z,21.47
2023-03-19T08:03:07.418Z,19.53
2023-03-19T08:05:40.097Z,18.20
2023-03-19T08:08:09.504Z,17.33
2023-03-19T08:10:47.601Z,18.67
2023-03-19T08:13:17.030Z,17.57
2023-03-19T08:15:44.123Z,17.23
2023-03-19T08:18:13.098Z,17.33
2023-03-19T08:20:41.269Z,18.20
2023-03-19T08:23:09.295Z,17.53
2023-03-19T08:25:37.344Z,17.17
2023-03-19T08:28:04.437Z,18.77
2023-03-19T08:30:32.338Z,16.80
2023-03-19T08:32:59.860Z,16.40
2023-03-19T08:35:29.633Z,17.67
2023-03-19T08:37:57.350Z,17.83
2023-03-19T08:40:25.292Z,18.37
2023-03-19T08:42:52.575Z,18.70
2023-03-19T08:45:19.893Z,18.10
2023-03-19T08:47:50.258Z,18.43
2023-03-19T08:50:27.551Z,20.23
2023-03-19T08:53:08.693Z,19.47
2023-03-19T08:55:45.168Z,19.00
2023-03-19T08:58:15.024Z,20.03
2023-03-19T09:00:44.336Z,20.67
2023-03-19T09:03:14.945Z,20.83
2023-03-19T09:08:32.655Z,20.10
2023-03-19T09:11:05.503Z,22.53
2023-03-19T09:13:33.680Z,20.97
2023-03-19T09:16:07.841Z,20.20
2023-03-19T09:18:35.950Z,20.73
2023-03-19T09:21:07.790Z,20.77
2023-03-19T09:23:38.223Z,20.40
2023-03-19T09:26:08.266Z,20.77
2023-03-19T09:28:36.013Z,19.00
2023-03-19T09:31:07.228Z,19.63
2023-03-19T09:33:40.352Z,17.70
2023-03-19T09:36:22.885Z,17.70
2023-03-19T09:38:58.163Z,17.33
2023-03-19T09:42:09.059Z,17.37
2023-03-19T09:45:14.056Z,15.33
2023-03-19T09:48:02.244Z,16.75
2023-03-19T09:57:37.136Z,16.67
2023-03-19T10:00:24.954Z,17.00
2023-03-19T10:03:12.057Z,15.68
2023-03-19T10:06:10.372Z,15.32
2023-03-19T10:09:00.050Z,15.90
2023-03-19T10:15:22.399Z,14.88
2023-03-19T10:18:17.298Z,15.15
2023-03-19T10:27:37.044Z,14.90
2023-03-19T10:30:26.496Z,14.77
2023-03-19T10:36:30.710Z,14.77
2023-03-19T10:38:58.177Z,14.85
2023-03-19T10:41:47.776Z,13.63
2023-03-19T10:44:41.872Z,13.35
2023-03-19T10:47:27.032Z,13.98
2023-03-19T10:50:10.021Z,13.15
2023-03-19T10:52:57.167Z,12.55
2023-03-19T10:55:43.257Z,12.30
2023-03-19T10:58:21.245Z,11.63
2023-03-19T11:00:57.975Z,11.48
2023-03-19T11:07:38.009Z,9.60
2023-03-19T11:10:24.404Z,10.65
2023-03-19T11:13:30.381Z,8.98
2023-03-19T11:16:03.505Z,9.13
2023-03-19T11:18:49.837Z,9.35
2023-03-19T11:21:34.755Z,10.57
2023-03-19T11:24:42.092Z,9.57
2023-03-19T11:30:17.680Z,8.45
2023-03-19T11:33:10.822Z,9.65
2023-03-19T11:35:45.655Z,8.55
2023-03-19T11:38:43.433Z,10.40
2023-03-19T11:41:38.233Z,10.80
2023-03-19T11:44:33.725Z,10.50
2023-03-19T11:47:26.474Z,9.85
2023-03-19T11:50:18.868Z,10.15
2023-03-19T11:53:12.918Z,12.10
2023-03-19T11:55:50.164Z,11.73
2023-03-19T11:58:50.782Z,11.35
2023-03-19T12:01:56.384Z,11.90
2023-03-19T12:05:08.668Z,12.82
2023-03-19T12:07:49.471Z,12.52
2023-03-19T12:11:16.793Z,13.65
2023-03-19T12:14:15.459Z,13.85
2023-03-19T12:17:22.588Z,13.43
2023-03-19T12:20:16.763Z,14.35
2023-03-19T12:23:24.552Z,14.20
2023-03-19T12:26:35.089Z,13.73
2023-03-19T12:29:04.563Z,11.25
2023-03-19T12:31:59.827Z,11.93
2023-03-19T12:34:43.358Z,9.98
2023-03-19T12:37:59.522Z,10.10
2023-03-19T12:44:21.905Z,11.85
2023-03-19T12:47:03.687Z,11.07
2023-03-19T12:49:41.153Z,11.27
2023-03-19T12:52:20.744Z,9.93
2023-03-19T12:54:55.427Z,10.43
2023-03-19T12:57:32.408Z,12.25
2023-03-19T13:00:10.385Z,11.77
2023-03-19T13:02:47.494Z,10.60
2023-03-19T13:05:44.725Z,11.65
2023-03-19T13:08:27.666Z,10.77
2023-03-19T13:10:55.099Z,12.65
2023-03-19T13:13:46.440Z,11.63
2023-03-19T13:16:48.116Z,11.88
2023-03-19T13:19:28.041Z,11.68
2023-03-19T13:22:02.262Z,12.40
2023-03-19T13:24:38.823Z,13.07
2023-03-19T13:27:10.186Z,12.40
2023-03-19T13:29:38.890Z,11.57
2023-03-19T13:32:27.272Z,11.75
2023-03-19T13:35:27.079Z,12.38
2023-03-19T13:38:04.749Z,13.35
2023-03-19T13:40:42.240Z,13.18
2023-03-19T13:43:28.483Z,12.55
2023-03-19T13:46:04.750Z,13.45
2023-03-19T13:48:39.115Z,12.50
2023-03-19T13:51:27.907Z,13.25
2023-03-19T13:54:08.223Z,11.77
2023-03-19T13:57:07.869Z,11.65
2023-03-19T13:59:39.338Z,12.77
2023-03-19T14:02:21.034Z,13.75
2023-03-19T14:05:02.067Z,12.18
2023-03-19T14:07:39.546Z,12.30
2023-03-19T14:10:25.504Z,12.38
2023-03-19T14:13:07.138Z,11.98
2023-03-19T14:15:35.450Z,12.45
2023-03-19T14:18:06.204Z,13.05
2023-03-19T14:20:47.650Z,11.43
2023-03-19T14:23:36.091Z,12.13
2023-03-19T14:26:40.012Z,11.43
2023-03-19T14:29:08.410Z,13.68
2023-03-19T14:31:53.628Z,13.05
2023-03-19T14:34:41.733Z,12.68
2023-03-19T14:37:29.659Z,13.13
2023-03-19T14:40:09.886Z,13.20
2023-03-19T14:43:01.495Z,12.60
2023-03-19T14:45:57.311Z,10.20
2023-03-19T14:48:45.271Z,10.70
2023-03-19T14:51:27.015Z,10.07
2023-03-19T14:54:17.171Z,9.60
2023-03-19T14:56:43.923Z,10.52
2023-03-19T14:59:13.765Z,10.57
2023-03-19T15:01:43.912Z,11.52
2023-03-19T15:04:13.139Z,11.45
2023-03-19T15:06:42.000Z,11.07
2023-03-19T15:09:31.793Z,11.10
2023-03-19T15:12:16.968Z,11.40
2023-03-19T15:15:11.468Z,12.80
2023-03-19T15:17:39.013Z,12.23
2023-03-19T15:20:24.492Z,11.00
2023-03-19T15:23:00.991Z,11.02
2023-03-19T15:25:29.680Z,11.18
2023-03-19T15:28:13.519Z,11.35
2023-03-19T15:30:53.914Z,9.27
2023-03-19T15:33:40.869Z,9.25
2023-03-19T15:36:16.436Z,9.23
2023-03-19T15:38:54.910Z,10.07
2023-03-19T15:41:25.478Z,10.90
2023-03-19T15:43:53.105Z,9.65
2023-03-19T15:46:27.874Z,10.47
2023-03-19T15:49:15.669Z,10.53
2023-03-19T15:51:44.812Z,9.80
2023-03-19T15:54:11.647Z,9.43
2023-03-19T15:56:39.397Z,8.83
2023-03-19T15:59:06.246Z,9.13
2023-03-19T16:01:33.869Z,9.67
2023-03-19T16:04:05.755Z,9.27
2023-03-19T16:06:41.283Z,8.67
2023-03-19T16:09:24.610Z,8.87
2023-03-19T16:11:52.719Z,8.63
2023-03-19T16:14:31.390Z,8.93
2023-03-19T16:17:10.414Z,9.27
2023-03-19T16:19:39.339Z,10.13
2023-03-19T16:22:20.575Z,9.50
2023-03-19T16:24:49.121Z,9.30
2023-03-19T16:27:21.607Z,9.50
2023-03-19T16:29:59.435Z,10.53
2023-03-19T16:32:28.355Z,11.03
2023-03-19T16:35:05.005Z,10.43
2023-03-19T16:37:53.210Z,9.77
2023-03-19T16:40:20.796Z,10.43
2023-03-19T16:42:52.866Z,10.03
2023-03-19T16:45:31.366Z,11.83
2023-03-19T16:48:03.193Z,14.03
2023-03-19T16:50:40.271Z,12.43
2023-03-19T16:53:21.150Z,11.80
2023-03-19T16:55:48.644Z,12.60
2023-03-19T16:58:18.017Z,13.93
2023-03-19T17:00:45.892Z,14.17
2023-03-19T17:03:14.944Z,13.07
2023-03-19T17:05:42.425Z,13.20
2023-03-19T17:08:09.511Z,14.57
2023-03-19T17:10:38.491Z,14.27
2023-03-19T17:13:06.294Z,14.67
2023-03-19T17:15:38.780Z,12.83
2023-03-19T17:18:16.693Z,14.07
2023-03-19T17:20:52.290Z,14.27
2023-03-19T17:23:19.223Z,13.20
2023-03-19T17:25:46.173Z,14.13
2023-03-19T17:28:12.929Z,14.47
2023-03-19T17:30:39.900Z,14.73
2023-03-19T17:33:06.806Z,14.63
2023-03-19T17:35:34.435Z,15.73
2023-03-19T17:38:02.387Z,15.40
2023-03-19T17:40:29.338Z,15.40
2023-03-19T17:42:56.961Z,15.00
2023-03-19T17:45:28.761Z,16.03
2023-03-19T17:47:58.149Z,15.80
2023-03-19T17:50:28.736Z,16.67
2023-03-19T17:52:55.757Z,17.30
2023-03-19T17:55:28.749Z,18.20
2023-03-19T17:57:56.079Z,17.17
2023-03-19T18:00:24.590Z,19.30
2023-03-19T18:02:53.985Z,20.80
2023-03-19T18:05:23.746Z,20.63
2023-03-19T18:07:53.898Z,21.03
2023-03-19T18:10:30.250Z,21.43
2023-03-19T18:13:00.022Z,21.03
2023-03-19T18:15:29.460Z,22.17
2023-03-19T18:17:59.014Z,23.20
2023-03-19T18:20:29.269Z,24.13
2023-03-19T18:22:55.994Z,25.40
2023-03-19T18:25:25.555Z,24.17
2023-03-19T18:27:52.479Z,25.03
2023-03-19T18:30:22.268Z,24.23
2023-03-19T18:32:56.258Z,26.00
2023-03-19T18:35:28.826Z,26.10
2023-03-19T18:37:56.175Z,26.07
2023-03-19T18:40:25.998Z,26.73
2023-03-19T18:42:53.177Z,25.93
2023-03-19T18:45:20.714Z,25.03
2023-03-19T18:47:48.840Z,26.07
2023-03-19T18:50:19.841Z,26.30
2023-03-19T18:52:48.717Z,21.57
2023-03-19T18:55:16.120Z,19.87
2023-03-19T18:57:53.480Z,21.23
2023-03-19T19:00:32.774Z,20.77
2023-03-19T19:03:00.688Z,20.83
2023-03-19T19:05:29.865Z,19.67
2023-03-19T19:07:59.219Z,21.03
2023-03-19T19:10:29.999Z,19.47
2023-03-19T19:12:57.190Z,19.90
2023-03-19T19:15:30.455Z,19.80
2023-03-19T19:17:57.874Z,21.07
2023-03-19T19:20:29.754Z,21.30
2023-03-19T19:22:56.648Z,21.07
2023-03-19T19:25:29.052Z,22.17
2023-03-19T19:28:21.747Z,22.60
2023-03-19T19:30:49.700Z,22.37
2023-03-19T19:33:21.671Z,22.60
2023-03-19T19:35:48.710Z,24.07
2023-03-19T19:38:16.160Z,22.50
2023-03-19T19:40:44.667Z,24.47
2023-03-19T19:43:23.199Z,25.57
2023-03-19T19:45:52.820Z,23.90
2023-03-19T19:48:24.580Z,22.77
2023-03-19T19:50:52.421Z,25.10
2023-03-19T19:53:19.805Z,26.23
2023-03-19T19:55:46.846Z,24.17
2023-03-19T19:58:34.130Z,24.80
2023-03-19T20:01:04.291Z,25.13
2023-03-19T20:03:33.321Z,24.77
2023-03-19T20:06:01.538Z,23.97
2023-03-19T20:08:28.828Z,25.13
2023-03-19T20:10:56.675Z,27.43
2023-03-19T20:13:34.174Z,24.57
2023-03-19T20:16:02.643Z,27.97
2023-03-19T20:18:32.863Z,26.30
2023-03-19T20:20:59.804Z,25.57
2023-03-19T20:23:26.643Z,25.97
2023-03-19T20:25:54.308Z,24.47
2023-03-19T20:28:30.436Z,24.70
2023-03-19T20:30:57.221Z,24.33
2023-03-19T20:33:24.384Z,24.40
2023-03-19T20:35:51.633Z,26.00
2023-03-19T20:38:18.326Z,23.90
2023-03-19T20:40:54.684Z,27.33
2023-03-19T20:43:28.217Z,24.63
2023-03-19T20:45:57.268Z,23.80
2023-03-19T20:48:25.141Z,25.37
2023-03-19T20:50:52.356Z,25.63
2023-03-19T20:53:19.078Z,24.73
2023-03-19T20:55:47.032Z,24.63
2023-03-19T20:58:16.414Z,27.53
2023-03-19T21:00:43.554Z,24.17
2023-03-19T21:03:17.758Z,25.60
2023-03-19T21:05:45.534Z,26.37
2023-03-19T21:08:19.447Z,25.57
2023-03-19T21:10:48.875Z,26.57
2023-03-19T21:13:19.535Z,26.63
2023-03-19T21:15:49.515Z,27.30
2023-03-19T21:18:17.040Z,28.60
2023-03-19T21:20:46.250Z,29.27
2023-03-19T21:23:18.777Z,26.93
2023-03-19T21:25:46.745Z,27.10
2023-03-19T21:28:30.672Z,29.53
2023-03-19T21:30:58.333Z,26.47
2023-03-19T21:33:28.057Z,27.00
2023-03-19T21:35:56.086Z,27.60
2023-03-19T21:38:23.636Z,27.67
2023-03-19T21:41:33.291Z,27.43
2023-03-19T21:44:04.013Z,27.77
2023-03-19T21:46:32.445Z,28.60
2023-03-19T21:48:59.581Z,27.10
2023-03-19T21:51:28.577Z,27.60
2023-03-19T21:53:56.751Z,28.67
2023-03-19T21:56:32.403Z,28.33
2023-03-19T21:59:13.578Z,28.33
2023-03-19T22:01:43.204Z,28.60
2023-03-19T22:04:10.018Z,27.43
2023-03-19T22:06:39.950Z,27.37
2023-03-19T22:09:06.778Z,27.70
2023-03-19T22:11:36.894Z,28.53
2023-03-19T22:14:19.450Z,26.47
2023-03-19T22:16:52.760Z,26.53
2023-03-19T22:19:21.453Z,26.73
2023-03-19T22:21:52.112Z,27.13
2023-03-19T22:24:21.020Z,27.23
2023-03-19T22:26:51.224Z,25.37
2023-03-19T22:29:24.538Z,25.20
2023-03-19T22:31:55.268Z,26.83
2023-03-19T22:34:27.612Z,26.70
2023-03-19T22:36:54.519Z,30.07
2023-03-19T22:39:21.192Z,32.93
2023-03-19T22:41:50.269Z,33.23
2023-03-19T22:44:27.068Z,29.63
2023-03-19T22:46:56.194Z,28.17
2023-03-19T22:49:24.613Z,28.30
2023-03-19T22:51:51.783Z,26.20
2023-03-19T22:54:19.449Z,29.43
2023-03-19T22:56:50.351Z,30.33
2023-03-19T22:59:17.286Z,31.77
2023-03-19T23:01:46.700Z,29.53
2023-03-19T23:04:29.378Z,29.60
2023-03-19T23:06:57.800Z,28.43
2023-03-19T23:09:30.809Z,27.90
2023-03-19T23:14:40.019Z,24.83
2023-03-19T23:17:15.204Z,24.40
2023-03-19T23:19:41.959Z,21.50
2023-03-19T23:22:16.497Z,20.33
2023-03-19T23:24:44.763Z,17.97
2023-03-19T23:27:22.600Z,17.80
2023-03-19T23:29:49.457Z,15.77
2023-03-19T23:32:17.324Z,15.97
2023-03-19T23:34:58.082Z,15.20
2023-03-19T23:37:29.355Z,13.10
2023-03-19T23:39:56.444Z,12.63
2023-03-19T23:42:30.103Z,14.83
2023-03-19T23:45:01.332Z,13.00
2023-03-19T23:47:29.460Z,12.77
2023-03-19T23:49:56.400Z,12.47
2023-03-19T23:52:29.153Z,13.37
2023-03-19T23:54:57.508Z,12.63
2023-03-19T23:57:26.521Z,11.43
2023-03-19T23:59:54.650Z,13.43
